Time;durP1;ratioP1;P1;durP2;ratioP2;P2;SDS_P1;SDS_P2;PMS_P1;PMS_P2;Temp;Humidity;BMP_temperature;BMP_pressure;BME280_temperature;BME280_humidity;BME280_pressure;Samples;Min_cycle;Max_cycle;Signal;HPM_P1;HPM_P2
2023/05/04 00:01:49;;;;;;;11.45;5.72;;;;;;;1.44;100.00;99386.09;4179056;28;20059;-70
2023/05/04 00:03:49;;;;;;;8.95;5.88;;;;;;;1.43;100.00;99388.00;4176266;28;20029;-70
2023/05/04 00:05:49;;;;;;;8.13;5.60;;;;;;;1.40;100.00;99377.66;4179023;28;20065;-70
2023/05/04 00:07:50;;;;;;;8.52;5.32;;;;;;;1.36;100.00;99384.84;4179814;28;20056;-70
2023/05/04 00:09:50;;;;;;;7.40;5.63;;;;;;;1.35;100.00;99381.28;4179369;28;20056;-70
2023/05/04 00:11:51;;;;;;;10.07;5.20;;;;;;;1.29;100.00;99377.03;4184799;28;20163;-70
2023/05/04 00:13:52;;;;;;;10.25;6.20;;;;;;;1.27;100.00;99375.69;4179991;28;20114;-70
2023/05/04 00:15:52;;;;;;;6.32;5.35;;;;;;;1.25;100.00;99380.66;4179986;28;20400;-70
2023/05/04 00:17:53;;;;;;;7.53;5.93;;;;;;;1.22;100.00;99384.75;4184314;28;20254;-70
2023/05/04 00:19:54;;;;;;;7.10;5.55;;;;;;;1.16;100.00;99377.78;4183060;28;20048;-70
2023/05/04 00:21:54;;;;;;;8.02;5.93;;;;;;;1.13;100.00;99373.69;4181770;28;20098;-70
2023/05/04 00:23:54;;;;;;;10.20;6.35;;;;;;;1.10;100.00;99379.75;4181595;28;20154;-70
2023/05/04 00:25:57;;;;;;;8.02;5.90;;;;;;;1.08;100.00;99376.50;4185475;28;20076;-70
2023/05/04 00:27:57;;;;;;;8.95;6.15;;;;;;;1.07;100.00;99377.59;4181204;28;20070;-70
2023/05/04 00:29:58;;;;;;;8.43;5.40;;;;;;;1.05;100.00;99376.28;4182464;28;20136;-70
2023/05/04 00:31:58;;;;;;;7.70;5.65;;;;;;;1.04;100.00;99375.47;4181759;28;20072;-70
2023/05/04 00:33:58;;;;;;;8.25;6.00;;;;;;;1.04;100.00;99380.91;4179226;28;20395;-70
2023/05/04 00:36:02;;;;;;;7.72;6.28;;;;;;;1.01;100.00;99370.59;4182339;28;20048;-70
2023/05/04 00:38:03;;;;;;;9.00;5.53;;;;;;;1.03;100.00;99371.13;4181926;28;20500;-70
2023/05/04 00:40:05;;;;;;;7.30;5.57;;;;;;;0.96;100.00;99367.94;4184070;28;20421;-70
2023/05/04 00:42:05;;;;;;;7.53;5.63;;;;;;;0.94;100.00;99364.72;4181361;28;20023;-70
2023/05/04 00:44:06;;;;;;;8.43;5.93;;;;;;;0.89;100.00;99362.03;4182531;28;20028;-70
2023/05/04 00:46:07;;;;;;;7.70;5.50;;;;;;;0.84;100.00;99360.22;4181033;28;20418;-70
2023/05/04 00:48:07;;;;;;;7.82;6.05;;;;;;;0.87;100.00;99361.53;4180438;28;20025;-70
2023/05/04 00:50:08;;;;;;;8.45;5.47;;;;;;;0.92;100.00;99352.47;4182200;28;20021;-70
2023/05/04 00:52:09;;;;;;;8.70;5.55;;;;;;;0.92;100.00;99358.75;4181415;28;20557;-70
2023/05/04 00:54:10;;;;;;;6.97;5.45;;;;;;;0.88;100.00;99354.97;4180655;28;20116;-70
2023/05/04 00:56:11;;;;;;;7.50;5.20;;;;;;;0.86;100.00;99353.66;4178611;28;20031;-70
2023/05/04 00:58:11;;;;;;;8.88;5.80;;;;;;;0.78;100.00;99342.28;4181921;28;20032;-70
2023/05/04 01:00:12;;;;;;;8.60;5.80;;;;;;;0.76;100.00;99358.13;4180675;28;20021;-70
2023/05/04 01:02:12;;;;;;;7.90;5.53;;;;;;;0.70;100.00;99339.41;4180639;28;20133;-70
2023/05/04 01:04:14;;;;;;;7.45;5.50;;;;;;;0.69;100.00;99348.69;4179621;28;20647;-70
2023/05/04 01:06:31;;;;;;;7.03;5.60;;;;;;;0.66;100.00;99343.81;4179038;28;20056;-70
2023/05/04 01:08:37;;;;;;;13.00;6.35;;;;;;;0.62;100.00;99343.59;4180732;28;20083;-70
2023/05/04 01:10:59;;;;;;;7.55;5.55;;;;;;;0.65;100.00;99339.47;4180958;28;20048;-70
2023/05/04 01:13:04;;;;;;;8.38;5.28;;;;;;;0.72;100.00;99339.94;4183545;28;20087;-70
2023/05/04 01:15:05;;;;;;;11.98;6.38;;;;;;;0.77;100.00;99337.97;4183529;28;20055;-70
2023/05/04 01:17:06;;;;;;;7.68;5.70;;;;;;;0.73;100.00;99342.34;4180320;28;20187;-70
2023/05/04 01:19:06;;;;;;;7.75;5.72;;;;;;;0.69;100.00;99333.16;4180441;28;20055;-69
2023/05/04 01:21:08;;;;;;;6.88;5.10;;;;;;;0.62;100.00;99338.16;4177053;28;20041;-69
2023/05/04 01:23:09;;;;;;;9.88;5.70;;;;;;;0.54;100.00;99341.50;4182034;28;20033;-70
2023/05/04 01:25:10;;;;;;;6.93;5.53;;;;;;;0.45;100.00;99330.47;4185510;28;20454;-70
2023/05/04 01:27:21;;;;;;;11.45;5.75;;;;;;;0.38;100.00;99330.00;4180112;28;20041;-70
2023/05/04 01:29:33;;;;;;;10.45;6.40;;;;;;;0.38;100.00;99334.63;4183163;28;20136;-70
2023/05/04 01:31:35;;;;;;;8.60;5.68;;;;;;;0.36;100.00;99336.84;4180343;28;20052;-70
2023/05/04 01:33:37;;;;;;;8.23;6.00;;;;;;;0.33;100.00;99335.47;4184303;28;20129;-70
2023/05/04 01:35:37;;;;;;;7.25;5.40;;;;;;;0.34;100.00;99341.78;4184461;28;20091;-70
2023/05/04 01:37:38;;;;;;;10.43;5.63;;;;;;;0.38;100.00;99340.06;4184918;28;20040;-70
2023/05/04 01:39:40;;;;;;;11.15;5.60;;;;;;;0.42;100.00;99338.41;4183755;28;20105;-70
2023/05/04 01:41:41;;;;;;;9.40;6.43;;;;;;;0.40;100.00;99325.06;4184946;28;20080;-70
2023/05/04 01:43:41;;;;;;;9.10;5.88;;;;;;;0.38;100.00;99335.44;4180512;28;20068;-70
2023/05/04 01:45:42;;;;;;;7.80;5.97;;;;;;;0.34;100.00;99339.84;4183981;28;20503;-70
2023/05/04 01:47:42;;;;;;;6.95;5.40;;;;;;;0.33;100.00;99337.41;4182588;28;20075;-70
2023/05/04 01:49:42;;;;;;;7.93;5.63;;;;;;;0.31;100.00;99340.41;4179312;28;20617;-70
2023/05/04 01:51:44;;;;;;;11.68;5.93;;;;;;;0.33;100.00;99345.56;4174744;28;20446;-70
2023/05/04 01:53:44;;;;;;;8.63;5.40;;;;;;;0.27;100.00;99345.63;4187317;28;20076;-70
2023/05/04 01:55:45;;;;;;;9.13;6.25;;;;;;;0.24;100.00;99337.22;4186863;28;20063;-69
2023/05/04 01:57:45;;;;;;;7.38;5.65;;;;;;;0.14;100.00;99349.03;4183171;28;20057;-70
2023/05/04 01:59:45;;;;;;;7.78;5.90;;;;;;;0.10;100.00;99352.63;4177817;28;20048;-70
2023/05/04 02:01:46;;;;;;;7.80;5.70;;;;;;;0.05;100.00;99339.06;4183309;28;20080;-70
2023/05/04 02:03:46;;;;;;;8.07;5.60;;;;;;;0.10;100.00;99347.19;4181607;28;20052;-70
2023/05/04 02:05:46;;;;;;;9.35;6.43;;;;;;;0.07;100.00;99348.56;4181884;28;20184;-70
2023/05/04 02:07:47;;;;;;;9.43;6.93;;;;;;;0.06;100.00;99340.69;4181194;28;20479;-70
2023/05/04 02:09:47;;;;;;;8.75;6.00;;;;;;;0.10;100.00;99336.31;4181936;28;20051;-70
2023/05/04 02:11:47;;;;;;;8.68;5.93;;;;;;;0.12;100.00;99340.34;4182656;28;20485;-69
2023/05/04 02:13:47;;;;;;;8.07;5.63;;;;;;;0.10;100.00;99341.75;4175544;28;20055;-70
2023/05/04 02:15:48;;;;;;;9.50;6.75;;;;;;;0.05;100.00;99339.06;4182144;28;20106;-70
2023/05/04 02:17:48;;;;;;;9.93;6.57;;;;;;;-0.04;100.00;99347.84;4182216;28;20473;-70
2023/05/04 02:19:48;;;;;;;11.23;7.10;;;;;;;-0.09;100.00;99337.00;4184306;28;20079;-70
2023/05/04 02:21:49;;;;;;;11.32;7.68;;;;;;;-0.05;100.00;99332.63;4176692;28;20543;-70
2023/05/04 02:23:49;;;;;;;13.20;8.57;;;;;;;-0.02;100.00;99336.69;4181975;28;20126;-70
2023/05/04 02:25:50;;;;;;;15.52;8.63;;;;;;;0.02;100.00;99337.75;4181524;28;20037;-69
2023/05/04 02:27:51;;;;;;;16.13;9.32;;;;;;;0.02;100.00;99328.78;4186623;28;20059;-69
2023/05/04 02:29:51;;;;;;;11.80;7.97;;;;;;;0.06;100.00;99332.53;4181398;28;20147;-70
2023/05/04 02:31:51;;;;;;;12.88;8.18;;;;;;;0.08;100.00;99331.13;4181965;28;20139;-70
2023/05/04 02:33:52;;;;;;;9.77;8.52;;;;;;;0.07;100.00;99329.50;4180956;28;20072;-69
2023/05/04 02:35:52;;;;;;;12.10;8.95;;;;;;;0.00;100.00;99320.91;4180259;28;20062;-69
2023/05/04 02:37:53;;;;;;;12.43;8.05;;;;;;;0.04;100.00;99332.00;4184251;28;20053;-70
2023/05/04 02:39:53;;;;;;;10.93;7.97;;;;;;;0.05;100.00;99331.72;4179079;28;20044;-69
2023/05/04 02:41:53;;;;;;;12.98;8.52;;;;;;;0.06;100.00;99332.53;4180704;28;20056;-69
2023/05/04 02:43:54;;;;;;;11.90;8.18;;;;;;;0.12;100.00;99323.22;4179442;28;20433;-69
2023/05/04 02:45:54;;;;;;;10.68;7.90;;;;;;;0.16;100.00;99333.22;4183637;28;20080;-69
2023/05/04 02:47:54;;;;;;;12.00;7.72;;;;;;;0.13;100.00;99330.28;4179672;28;20580;-70
2023/05/04 02:49:55;;;;;;;13.68;7.43;;;;;;;0.15;100.00;99328.06;4183438;28;20043;-69
2023/05/04 02:51:55;;;;;;;12.15;7.72;;;;;;;0.18;100.00;99325.59;4182691;28;20051;-69
2023/05/04 02:53:55;;;;;;;12.88;7.35;;;;;;;0.20;100.00;99328.03;4181278;28;20070;-69
2023/05/04 02:55:55;;;;;;;11.48;7.43;;;;;;;0.14;100.00;99326.44;4182721;28;20052;-69
2023/05/04 02:57:56;;;;;;;10.80;6.68;;;;;;;0.10;100.00;99326.25;4183907;28;20032;-69
2023/05/04 02:59:56;;;;;;;13.70;7.50;;;;;;;0.07;100.00;99323.25;4181926;28;20451;-69
2023/05/04 03:01:57;;;;;;;10.02;6.90;;;;;;;0.13;100.00;99327.56;4178393;28;20113;-69
2023/05/04 03:03:57;;;;;;;10.23;6.78;;;;;;;0.13;100.00;99313.94;4178066;28;20150;-69
2023/05/04 03:05:57;;;;;;;9.80;5.85;;;;;;;0.10;100.00;99319.97;4179435;28;20082;-69
2023/05/04 03:07:58;;;;;;;19.88;6.35;;;;;;;0.01;100.00;99311.63;4179513;28;20086;-69
2023/05/04 03:09:58;;;;;;;8.65;6.18;;;;;;;-0.06;100.00;99322.06;4179253;28;20537;-69
2023/05/04 03:11:59;;;;;;;8.30;6.20;;;;;;;-0.06;100.00;99314.69;4181918;28;20123;-69
2023/05/04 03:13:59;;;;;;;10.98;7.07;;;;;;;-0.18;100.00;99319.69;4180717;28;20044;-70
2023/05/04 03:16:00;;;;;;;12.02;6.93;;;;;;;-0.23;100.00;99317.03;4179245;28;20096;-69
2023/05/04 03:18:00;;;;;;;12.25;7.32;;;;;;;-0.27;100.00;99321.41;4181083;28;20510;-69
2023/05/04 03:20:00;;;;;;;10.55;6.18;;;;;;;-0.30;100.00;99322.81;4179086;28;20048;-69
2023/05/04 03:22:01;;;;;;;17.08;8.02;;;;;;;-0.36;100.00;99323.13;4177288;28;20044;-70
2023/05/04 03:24:01;;;;;;;11.50;7.68;;;;;;;-0.42;100.00;99325.09;4179206;28;20416;-70
2023/05/04 03:26:01;;;;;;;9.25;7.03;;;;;;;-0.49;100.00;99332.78;4178582;28;20381;-70
2023/05/04 03:28:02;;;;;;;9.48;6.22;;;;;;;-0.49;100.00;99338.22;4179477;28;20059;-70
2023/05/04 03:30:03;;;;;;;9.80;6.78;;;;;;;-0.54;100.00;99332.81;4177876;28;20656;-70
2023/05/04 03:32:03;;;;;;;10.10;7.22;;;;;;;-0.57;100.00;99328.75;4180183;28;20044;-70
2023/05/04 03:34:04;;;;;;;11.25;7.60;;;;;;;-0.55;100.00;99341.25;4178064;28;20332;-70
2023/05/04 03:36:04;;;;;;;8.77;6.55;;;;;;;-0.60;100.00;99332.03;4177901;28;20040;-70
2023/05/04 03:38:06;;;;;;;10.75;7.07;;;;;;;-0.57;100.00;99338.81;4180396;28;20328;-70
2023/05/04 03:40:07;;;;;;;10.73;6.78;;;;;;;-0.56;100.00;99332.28;4179798;28;20043;-70
2023/05/04 03:42:07;;;;;;;12.60;7.75;;;;;;;-0.62;100.00;99336.94;4179087;28;20021;-70
2023/05/04 03:44:07;;;;;;;11.90;8.10;;;;;;;-0.60;100.00;99339.38;4181746;28;20053;-70
2023/05/04 03:46:08;;;;;;;11.93;7.70;;;;;;;-0.63;100.00;99334.50;4180739;28;20053;-70
2023/05/04 03:48:08;;;;;;;11.65;8.25;;;;;;;-0.69;100.00;99328.28;4183699;28;20078;-70
2023/05/04 03:50:09;;;;;;;11.90;8.18;;;;;;;-0.73;100.00;99327.25;4184359;28;20020;-70
2023/05/04 03:52:10;;;;;;;17.10;9.38;;;;;;;-0.74;100.00;99324.81;4182548;28;20021;-70
2023/05/04 03:54:11;;;;;;;10.55;7.78;;;;;;;-0.72;100.00;99326.16;4180971;28;20028;-70
2023/05/04 03:56:11;;;;;;;12.80;8.68;;;;;;;-0.75;100.00;99321.28;4182425;28;20031;-70
2023/05/04 03:58:11;;;;;;;15.32;9.77;;;;;;;-0.73;100.00;99329.16;4182926;28;20110;-70
2023/05/04 04:00:12;;;;;;;15.38;8.80;;;;;;;-0.71;100.00;99333.22;4181023;28;20107;-70
2023/05/04 04:02:12;;;;;;;13.52;8.73;;;;;;;-0.70;100.00;99329.41;4182655;28;20442;-70
2023/05/04 04:04:13;;;;;;;16.02;9.05;;;;;;;-0.69;100.00;99332.94;4182611;28;20428;-70
2023/05/04 04:06:13;;;;;;;14.15;9.90;;;;;;;-0.63;100.00;99329.09;4180029;28;20056;-70
2023/05/04 04:08:13;;;;;;;11.65;8.27;;;;;;;-0.53;100.00;99330.91;4183252;28;20068;-70
2023/05/04 04:10:14;;;;;;;14.50;8.68;;;;;;;-0.47;100.00;99330.59;4179706;28;20021;-70
2023/05/04 04:12:19;;;;;;;17.52;9.43;;;;;;;-0.41;100.00;99332.16;4182046;28;20477;-70
2023/05/04 04:14:19;;;;;;;13.93;9.25;;;;;;;-0.38;100.00;99325.34;4182629;28;20032;-70
2023/05/04 04:16:20;;;;;;;16.08;8.77;;;;;;;-0.35;100.00;99327.47;4184252;28;20033;-70
2023/05/04 04:18:22;;;;;;;17.67;9.10;;;;;;;-0.37;100.00;99333.22;4181262;28;20120;-70
2023/05/04 04:20:22;;;;;;;15.20;8.65;;;;;;;-0.37;100.00;99326.97;4188366;28;20125;-70
2023/05/04 04:22:22;;;;;;;14.07;8.88;;;;;;;-0.29;100.00;99323.63;4185839;28;20091;-70
2023/05/04 04:24:23;;;;;;;15.18;9.57;;;;;;;-0.19;100.00;99328.97;4186334;28;20052;-70
2023/05/04 04:26:23;;;;;;;13.82;8.88;;;;;;;-0.16;100.00;99325.69;4184502;28;20068;-70
2023/05/04 04:28:23;;;;;;;12.73;9.18;;;;;;;-0.14;100.00;99318.03;4187924;28;20482;-70
2023/05/04 04:30:24;;;;;;;16.73;8.95;;;;;;;-0.13;100.00;99327.81;4183107;28;20102;-70
2023/05/04 04:32:24;;;;;;;14.20;9.52;;;;;;;-0.14;100.00;99330.84;4185579;28;20036;-70
2023/05/04 04:34:24;;;;;;;14.68;9.13;;;;;;;-0.10;100.00;99321.78;4185660;28;20131;-70
2023/05/04 04:36:25;;;;;;;12.43;8.77;;;;;;;0.01;100.00;99321.72;4182557;28;20101;-70
2023/05/04 04:38:25;;;;;;;13.23;8.73;;;;;;;0.07;100.00;99323.25;4182942;28;20124;-70
2023/05/04 04:40:26;;;;;;;17.67;10.60;;;;;;;0.12;100.00;99317.78;4183882;28;20033;-70
2023/05/04 04:42:26;;;;;;;14.85;9.18;;;;;;;0.14;100.00;99310.94;4185145;28;20226;-70
2023/05/04 04:44:27;;;;;;;19.60;10.32;;;;;;;0.16;100.00;99316.91;4183694;28;20499;-70
2023/05/04 04:46:27;;;;;;;18.83;10.18;;;;;;;0.15;100.00;99309.03;4182937;28;20124;-70
2023/05/04 04:48:28;;;;;;;18.30;12.27;;;;;;;0.28;100.00;99320.03;4181547;28;20449;-70
2023/05/04 04:50:29;;;;;;;20.80;12.38;;;;;;;0.35;100.00;99316.16;4179595;28;20489;-70
2023/05/04 04:52:31;;;;;;;15.38;10.90;;;;;;;0.41;100.00;99314.97;4184895;28;20048;-69
2023/05/04 04:54:31;;;;;;;15.40;9.38;;;;;;;0.48;100.00;99327.13;4183859;28;20047;-70
2023/05/04 04:56:31;;;;;;;13.73;9.38;;;;;;;0.49;100.00;99322.50;4183387;28;20044;-70
2023/05/04 04:58:32;;;;;;;16.02;9.18;;;;;;;0.54;100.00;99315.09;4185620;28;20084;-70
2023/05/04 05:00:34;;;;;;;12.88;9.05;;;;;;;0.68;100.00;99323.38;4185793;28;20116;-70
2023/05/04 05:02:34;;;;;;;15.55;9.10;;;;;;;0.77;100.00;99320.81;4182622;28;20079;-70
2023/05/04 05:04:39;;;;;;;13.55;8.48;;;;;;;0.82;100.00;99323.44;4184053;28;20099;-70
2023/05/04 05:06:40;;;;;;;14.88;8.75;;;;;;;0.88;100.00;99316.00;4182014;28;20135;-70
2023/05/04 05:08:42;;;;;;;12.68;8.45;;;;;;;0.93;100.00;99314.03;4186706;28;20072;-70
2023/05/04 05:10:43;;;;;;;11.82;8.57;;;;;;;1.02;100.00;99314.19;4184386;28;20075;-70
2023/05/04 05:12:43;;;;;;;13.13;8.80;;;;;;;1.06;100.00;99315.19;4180088;28;20049;-70
2023/05/04 05:14:46;;;;;;;13.43;8.93;;;;;;;1.11;100.00;99313.22;4180035;28;20581;-70
2023/05/04 05:16:46;;;;;;;15.88;9.40;;;;;;;1.20;100.00;99304.38;4182364;28;20053;-70
2023/05/04 05:18:46;;;;;;;13.07;8.70;;;;;;;1.28;100.00;99298.25;4184489;28;20049;-70
2023/05/04 05:20:47;;;;;;;12.27;8.88;;;;;;;1.36;100.00;99306.56;4183478;28;20033;-70
2023/05/04 05:22:47;;;;;;;12.00;8.77;;;;;;;1.45;100.00;99308.63;4181585;28;20079;-70
2023/05/04 05:24:48;;;;;;;11.57;8.50;;;;;;;1.51;100.00;99299.25;4184660;28;20089;-70
2023/05/04 05:26:48;;;;;;;17.05;9.02;;;;;;;1.58;100.00;99296.97;4183511;28;20307;-70
2023/05/04 05:28:48;;;;;;;10.40;7.63;;;;;;;1.63;100.00;99310.50;4185644;28;20037;-70
2023/05/04 05:30:50;;;;;;;14.70;8.55;;;;;;;1.69;100.00;99295.66;4183890;28;20498;-70
2023/05/04 05:32:52;;;;;;;12.63;8.07;;;;;;;1.75;100.00;99293.66;4182469;28;20112;-70
2023/05/04 05:34:52;;;;;;;13.32;9.18;;;;;;;1.82;100.00;99294.88;4181212;28;20051;-70
2023/05/04 05:36:53;;;;;;;12.00;8.50;;;;;;;1.89;100.00;99291.75;4185791;28;20131;-70
2023/05/04 05:38:53;;;;;;;13.70;7.93;;;;;;;1.95;100.00;99291.34;4180266;28;20528;-70
2023/05/04 05:40:53;;;;;;;14.23;9.48;;;;;;;2.03;100.00;99289.84;4182978;28;20408;-70
2023/05/04 05:42:53;;;;;;;13.70;9.25;;;;;;;2.08;100.00;99297.94;4184263;28;20036;-70
2023/05/04 05:44:54;;;;;;;15.75;9.23;;;;;;;2.09;100.00;99294.13;4185447;28;20044;-70
2023/05/04 05:46:55;;;;;;;18.08;9.20;;;;;;;2.15;100.00;99289.34;4184636;28;20053;-70
2023/05/04 05:48:55;;;;;;;14.50;8.43;;;;;;;2.22;100.00;99293.28;4184968;28;20098;-70
2023/05/04 05:50:55;;;;;;;14.77;8.95;;;;;;;2.30;100.00;99296.44;4180919;28;20536;-70
2023/05/04 05:52:55;;;;;;;13.65;9.20;;;;;;;2.33;100.00;99285.72;4183324;28;20408;-70
2023/05/04 05:54:56;;;;;;;12.38;8.65;;;;;;;2.38;100.00;99291.06;4183769;28;20068;-70
2023/05/04 05:56:57;;;;;;;13.63;9.43;;;;;;;2.45;100.00;99291.47;4183309;28;20040;-70
2023/05/04 05:58:57;;;;;;;12.10;9.15;;;;;;;2.50;100.00;99285.91;4175977;28;20407;-70
2023/05/04 06:00:57;;;;;;;12.93;8.60;;;;;;;2.56;100.00;99286.59;4178548;28;20056;-70
2023/05/04 06:02:58;;;;;;;14.85;9.13;;;;;;;2.59;100.00;99286.00;4185118;28;20523;-70
2023/05/04 06:04:58;;;;;;;15.65;8.73;;;;;;;2.70;100.00;99294.78;4183892;28;20043;-70
2023/05/04 06:06:58;;;;;;;17.45;10.20;;;;;;;2.76;100.00;99288.91;4184479;28;20055;-70
2023/05/04 06:08:59;;;;;;;14.25;9.93;;;;;;;2.88;100.00;99293.03;4179224;28;20036;-70
2023/05/04 06:10:59;;;;;;;13.45;9.75;;;;;;;2.96;100.00;99290.38;4182752;28;20033;-70
2023/05/04 06:13:00;;;;;;;16.92;11.13;;;;;;;3.07;100.00;99289.03;4182153;28;20044;-70
2023/05/04 06:15:01;;;;;;;20.00;12.85;;;;;;;3.17;100.00;99284.44;4184491;28;20392;-70
2023/05/04 06:17:01;;;;;;;19.27;11.90;;;;;;;3.26;100.00;99282.59;4183305;28;20469;-70
2023/05/04 06:19:02;;;;;;;17.52;11.82;;;;;;;3.38;100.00;99286.38;4182559;28;20133;-70
2023/05/04 06:21:02;;;;;;;17.23;11.07;;;;;;;3.46;100.00;99287.56;4178263;28;20060;-70
2023/05/04 06:23:03;;;;;;;17.88;10.75;;;;;;;3.55;100.00;99282.13;4183639;28;20627;-70
2023/05/04 06:25:03;;;;;;;18.05;11.40;;;;;;;3.67;100.00;99285.13;4183438;28;20087;-70
2023/05/04 06:27:04;;;;;;;17.80;11.43;;;;;;;3.80;100.00;99281.47;4182827;28;20513;-70
2023/05/04 06:29:04;;;;;;;18.33;12.60;;;;;;;3.93;100.00;99277.84;4184236;28;20078;-70
2023/05/04 06:31:04;;;;;;;17.02;11.07;;;;;;;4.09;100.00;99277.44;4183083;28;20044;-70
2023/05/04 06:33:05;;;;;;;14.35;10.45;;;;;;;4.20;100.00;99273.28;4181491;28;20087;-70
2023/05/04 06:35:08;;;;;;;17.73;11.55;;;;;;;4.31;100.00;99268.34;4181946;28;20044;-70
2023/05/04 06:37:08;;;;;;;15.90;10.38;;;;;;;4.42;100.00;99266.94;4181971;28;20041;-70
2023/05/04 06:39:09;;;;;;;13.40;9.40;;;;;;;4.47;100.00;99267.59;4184090;28;20028;-70
2023/05/04 06:41:09;;;;;;;16.05;9.88;;;;;;;4.55;100.00;99273.41;4182918;28;20389;-70
2023/05/04 06:43:10;;;;;;;11.90;8.75;;;;;;;4.65;100.00;99270.38;4175061;28;20075;-70
2023/05/04 06:45:10;;;;;;;14.20;8.80;;;;;;;4.76;100.00;99269.75;4181816;28;20504;-70
2023/05/04 06:47:11;;;;;;;15.18;9.07;;;;;;;4.87;100.00;99272.16;4179126;28;20044;-70
2023/05/04 06:49:11;;;;;;;14.30;9.85;;;;;;;5.00;100.00;99265.75;4181701;28;20037;-70
2023/05/04 06:51:11;;;;;;;15.40;9.52;;;;;;;5.11;100.00;99267.03;4187124;28;20052;-71
2023/05/04 06:53:12;;;;;;;16.17;9.35;;;;;;;5.22;100.00;99273.81;4181471;28;20068;-71
2023/05/04 06:55:12;;;;;;;14.88;10.02;;;;;;;5.29;100.00;99260.41;4177338;28;20441;-71
2023/05/04 06:57:13;;;;;;;12.77;10.00;;;;;;;5.46;100.00;99265.09;4181774;28;20128;-71
2023/05/04 06:59:15;;;;;;;14.68;10.07;;;;;;;5.57;100.00;99262.81;4181739;28;20041;-71
2023/05/04 07:01:15;;;;;;;17.02;10.18;;;;;;;5.70;100.00;99264.53;4176998;28;20159;-71
2023/05/04 07:03:16;;;;;;;20.55;10.98;;;;;;;5.85;100.00;99261.28;4182090;28;20080;-71
2023/05/04 07:05:16;;;;;;;15.40;9.73;;;;;;;5.94;100.00;99258.53;4183852;28;20372;-71
2023/05/04 07:07:17;;;;;;;14.10;9.82;;;;;;;6.08;100.00;99264.63;4183628;28;20449;-71
2023/05/04 07:09:18;;;;;;;13.57;8.65;;;;;;;6.20;100.00;99256.47;4188893;28;20024;-71
2023/05/04 07:11:19;;;;;;;14.32;8.38;;;;;;;6.36;100.00;99253.97;4181175;28;20053;-71
2023/05/04 07:13:19;;;;;;;12.65;8.63;;;;;;;6.48;100.00;99254.09;4182558;28;20083;-71
2023/05/04 07:15:20;;;;;;;12.18;7.78;;;;;;;6.58;100.00;99247.41;4180454;28;20143;-71
2023/05/04 07:17:20;;;;;;;13.15;8.32;;;;;;;6.75;100.00;99252.00;4176099;28;20045;-71
2023/05/04 07:19:21;;;;;;;12.20;7.70;;;;;;;6.89;100.00;99249.00;4132711;28;20048;-71
2023/05/04 07:21:21;;;;;;;23.17;9.32;;;;;;;7.00;100.00;99247.44;4176942;28;20056;-71
2023/05/04 07:23:21;;;;;;;12.23;8.40;;;;;;;7.14;100.00;99249.94;4184313;28;20044;-71
2023/05/04 07:25:23;;;;;;;11.20;8.07;;;;;;;7.31;100.00;99250.59;4182278;28;20338;-71
2023/05/04 07:27:24;;;;;;;16.58;8.85;;;;;;;7.46;100.00;99251.09;4182310;28;20094;-71
2023/05/04 07:29:25;;;;;;;13.48;8.52;;;;;;;7.59;100.00;99247.22;4180119;28;20324;-71
2023/05/04 07:31:25;;;;;;;12.88;7.80;;;;;;;7.70;100.00;99237.41;4178024;28;20057;-71
2023/05/04 07:33:27;;;;;;;13.88;7.68;;;;;;;7.83;100.00;99228.03;4182853;28;20041;-71
2023/05/04 07:35:27;;;;;;;12.48;8.20;;;;;;;8.02;100.00;99230.22;4184509;28;20048;-71
2023/05/04 07:37:27;;;;;;;13.68;9.23;;;;;;;8.18;100.00;99222.09;4180342;28;20049;-71
2023/05/04 07:39:28;;;;;;;13.50;8.65;;;;;;;8.32;100.00;99221.75;4181427;28;20069;-71
2023/05/04 07:41:28;;;;;;;16.08;7.70;;;;;;;8.40;100.00;99216.16;4178014;28;20045;-71
2023/05/04 07:43:28;;;;;;;11.18;7.85;;;;;;;8.52;100.00;99218.06;4184158;28;20493;-71
2023/05/04 07:45:28;;;;;;;14.82;7.07;;;;;;;8.66;100.00;99217.72;4180944;28;20058;-71
2023/05/04 07:47:29;;;;;;;13.13;7.35;;;;;;;8.79;100.00;99221.28;4182447;28;20123;-71
2023/05/04 07:49:29;;;;;;;11.48;7.25;;;;;;;8.92;100.00;99217.31;4182121;28;20048;-71
2023/05/04 07:51:30;;;;;;;11.25;6.88;;;;;;;8.98;100.00;99215.94;4181783;28;20053;-71
2023/05/04 07:53:30;;;;;;;8.48;6.07;;;;;;;9.07;100.00;99211.06;4180544;28;20086;-71
2023/05/04 07:55:30;;;;;;;10.43;7.25;;;;;;;9.15;100.00;99209.31;4183111;28;20384;-71
2023/05/04 07:57:32;;;;;;;11.15;7.43;;;;;;;9.24;100.00;99213.53;4181465;28;20120;-71
2023/05/04 07:59:32;;;;;;;11.38;7.13;;;;;;;9.32;100.00;99199.94;4181775;28;20114;-71
2023/05/04 08:01:32;;;;;;;10.68;6.95;;;;;;;9.46;100.00;99208.63;4177845;28;20496;-71
2023/05/04 08:03:33;;;;;;;9.48;7.18;;;;;;;9.54;100.00;99194.66;4179036;28;20049;-72
2023/05/04 08:05:33;;;;;;;11.80;7.38;;;;;;;9.68;100.00;99201.69;4182211;28;20136;-71
2023/05/04 08:07:33;;;;;;;10.73;6.35;;;;;;;9.79;100.00;99202.81;4181210;28;20069;-71
2023/05/04 08:09:34;;;;;;;15.73;7.30;;;;;;;9.95;100.00;99202.81;4184747;28;20343;-72
2023/05/04 08:11:34;;;;;;;10.10;6.50;;;;;;;10.02;100.00;99200.22;4177041;28;20044;-71
2023/05/04 08:13:34;;;;;;;10.98;6.95;;;;;;;10.07;100.00;99197.97;4180233;28;20045;-71
2023/05/04 08:15:35;;;;;;;13.30;6.80;;;;;;;10.19;100.00;99194.34;4179668;28;20041;-72
2023/05/04 08:17:38;;;;;;;8.85;6.20;;;;;;;10.28;100.00;99191.41;4179171;28;20045;-72
2023/05/04 08:19:38;;;;;;;;;;;;;;;10.44;100.00;99196.94;4185159;28;20346;-71
2023/05/04 08:21:39;;;;;;;11.40;6.00;;;;;;;10.51;100.00;99189.59;4181176;28;19944;-71
2023/05/04 08:23:39;;;;;;;9.18;6.75;;;;;;;10.57;99.96;99185.38;4182122;28;20455;-71
2023/05/04 08:25:39;;;;;;;11.45;6.78;;;;;;;10.66;100.00;99188.72;4178581;28;20531;-71
2023/05/04 08:27:40;;;;;;;11.70;6.65;;;;;;;10.81;100.00;99189.84;4176215;28;20466;-71
2023/05/04 08:29:40;;;;;;;8.43;6.43;;;;;;;10.91;99.72;99189.28;4178946;28;20091;-71
2023/05/04 08:31:41;;;;;;;9.63;5.80;;;;;;;11.00;100.00;99191.84;4185055;28;20468;-72
2023/05/04 08:33:41;;;;;;;9.02;5.47;;;;;;;11.08;100.00;99193.59;4187159;28;20413;-72
2023/05/04 08:35:42;;;;;;;15.07;6.70;;;;;;;11.14;97.84;99183.81;4180331;28;20473;-71
2023/05/04 08:37:42;;;;;;;9.15;5.72;;;;;;;11.25;100.00;99184.88;4185135;28;20524;-72
2023/05/04 08:39:43;;;;;;;8.48;5.75;;;;;;;11.37;98.23;99177.56;4180058;28;20094;-71
2023/05/04 08:41:43;;;;;;;10.05;6.05;;;;;;;11.45;98.10;99182.88;4176649;28;20037;-72
2023/05/04 08:43:45;;;;;;;11.38;5.75;;;;;;;11.59;98.70;99174.03;4186318;28;20052;-72
2023/05/04 08:45:45;;;;;;;11.75;5.65;;;;;;;11.71;95.82;99176.63;4185346;28;20041;-72
2023/05/04 08:47:46;;;;;;;12.52;5.70;;;;;;;11.82;95.85;99177.63;4181707;28;20079;-71
2023/05/04 08:49:47;;;;;;;9.20;5.63;;;;;;;11.92;94.16;99178.22;4184797;28;20111;-71
2023/05/04 08:51:51;;;;;;;7.50;5.35;;;;;;;11.92;94.40;99175.44;4186282;28;20072;-71
2023/05/04 08:53:53;;;;;;;10.13;5.60;;;;;;;11.92;93.07;99170.69;4184739;28;20077;-71
2023/05/04 08:55:54;;;;;;;11.70;6.30;;;;;;;12.00;95.07;99175.19;4183451;28;20059;-71
2023/05/04 08:57:58;;;;;;;11.32;5.97;;;;;;;12.18;95.67;99171.91;4185438;28;20045;-71
2023/05/04 08:59:58;;;;;;;10.43;6.30;;;;;;;12.35;92.57;99166.63;4184374;28;20792;-71
2023/05/04 09:01:59;;;;;;;12.10;6.22;;;;;;;12.41;90.73;99171.84;4189794;28;20083;-72
2023/05/04 09:04:01;;;;;;;11.23;6.03;;;;;;;12.56;95.23;99171.69;4179835;28;20044;-72
2023/05/04 09:06:02;;;;;;;7.97;5.55;;;;;;;12.66;93.08;99167.47;4182340;28;20144;-73
2023/05/04 09:08:02;;;;;;;6.68;5.40;;;;;;;12.71;92.82;99158.00;4181448;28;20144;-72
2023/05/04 09:10:03;;;;;;;9.52;5.32;;;;;;;12.80;92.93;99170.44;4178989;28;20135;-72
2023/05/04 09:12:03;;;;;;;7.97;5.65;;;;;;;12.88;91.76;99161.03;4186618;28;20025;-72
2023/05/04 09:14:04;;;;;;;7.60;5.40;;;;;;;12.94;90.72;99159.50;4180792;28;20537;-72
2023/05/04 09:16:06;;;;;;;11.40;6.03;;;;;;;13.03;90.75;99162.00;4179931;28;20117;-71
2023/05/04 09:18:08;;;;;;;8.15;5.45;;;;;;;13.08;88.59;99152.56;4182827;28;20028;-71
2023/05/04 09:20:09;;;;;;;7.78;6.07;;;;;;;13.18;91.99;99154.66;4179139;28;20028;-71
2023/05/04 09:22:15;;;;;;;7.72;4.97;;;;;;;13.32;90.54;99154.84;4181867;28;20511;-71
2023/05/04 09:24:26;;;;;;;10.25;4.93;;;;;;;13.44;89.15;99159.34;4185914;28;20124;-71